Time;durP1;ratioP1;P1;durP2;ratioP2;P2;SDS_P1;SDS_P2;PMS_P1;PMS_P2;Temp;Humidity;BMP_temperature;BMP_pressure;BME280_temperature;BME280_humidity;BME280_pressure;Samples;Min_cycle;Max_cycle;Signal;HPM_P1;HPM_P2
2023/01/19 00:03:28;;;;;;;29.93;16.33;;;1.40;99.90;;;;;;10299240;28;20201;-79
2023/01/19 00:08:49;;;;;;;26.30;14.53;;;1.50;99.90;;;;;;10321626;28;20225;-79
2023/01/19 00:14:10;;;;;;;25.47;13.37;;;1.40;99.90;;;;;;10336713;28;20244;-78
2023/01/19 00:19:31;;;;;;;28.90;15.40;;;1.50;97.40;;;;;;10321466;28;20515;-79
2023/01/19 00:24:52;;;;;;;27.23;14.13;;;1.50;99.30;;;;;;10321579;28;20209;-78
2023/01/19 00:30:13;;;;;;;28.90;14.60;;;1.50;90.40;;;;;;10319487;28;20241;-79
2023/01/19 00:35:35;;;;;;;24.80;13.47;;;1.60;87.50;;;;;;10320139;28;20245;-79
2023/01/19 00:40:56;;;;;;;24.87;13.20;;;1.50;79.60;;;;;;10320896;28;20428;-80
2023/01/19 00:46:17;;;;;;;22.77;12.93;;;1.40;79.60;;;;;;10320777;28;20574;-78
2023/01/19 00:51:38;;;;;;;22.33;12.80;;;1.40;95.10;;;;;;10319717;28;20200;-79
2023/01/19 00:57:00;;;;;;;23.07;12.47;;;1.40;85.90;;;;;;10318595;28;20232;-79
2023/01/19 01:02:21;;;;;;;23.50;13.73;;;1.50;70.40;;;;;;10319975;28;20433;-79
2023/01/19 01:07:43;;;;;;;24.87;13.97;;;1.40;75.50;;;;;;10320098;28;20233;-78
2023/01/19 01:13:05;;;;;;;28.77;15.60;;;1.40;81.00;;;;;;10301808;28;20229;-79
2023/01/19 01:18:27;;;;;;;34.43;17.40;;;1.40;73.40;;;;;;10334609;28;20202;-79
2023/01/19 01:23:48;;;;;;;44.03;22.67;;;1.40;70.30;;;;;;10319176;28;20198;-79
2023/01/19 01:29:09;;;;;;;34.20;18.40;;;1.30;63.00;;;;;;10300135;28;20246;-79
2023/01/19 01:34:30;;;;;;;42.20;20.50;;;1.20;79.30;;;;;;10319110;28;20348;-79
2023/01/19 01:39:51;;;;;;;39.23;22.87;;;1.20;99.90;;;;;;10317384;28;20201;-79
2023/01/19 01:45:21;;;;;;;35.83;18.20;;;1.20;99.90;;;;;;10318457;28;20202;-78
2023/01/19 01:51:23;;;;;;;34.30;18.37;;;1.20;99.90;;;;;;10317482;28;20202;-79
2023/01/19 01:56:48;;;;;;;33.27;17.53;;;1.30;96.30;;;;;;10317086;28;20574;-79
2023/01/19 02:13:50;;;;;;;13.67;8.17;;;1.40;23.80;;;;;;10314187;28;20256;-79
2023/01/19 02:19:16;;;;;;;16.13;8.80;;;1.50;2.00;;;;;;10330201;28;20265;-78
2023/01/19 02:24:37;;;;;;;14.23;8.57;;;1.60;5.80;;;;;;10315566;28;20221;-79
2023/01/19 02:29:59;;;;;;;15.60;8.17;;;1.50;1.00;;;;;;10283361;28;20433;-80
2023/01/19 02:35:21;;;;;;;13.43;7.77;;;1.40;4.20;;;;;;10302024;28;20228;-79
2023/01/19 02:40:44;;;;;;;15.70;8.67;;;1.40;1.00;;;;;;10315391;28;20195;-79
2023/01/19 02:46:06;;;;;;;13.27;7.90;;;1.30;1.00;;;;;;10275193;28;20198;-79
2023/01/19 02:51:30;;;;;;;13.23;7.30;;;1.30;1.00;;;;;;10287561;28;20264;-79
2023/01/19 02:57:04;;;;;;;14.97;9.17;;;1.30;1.00;;;;;;10301647;28;20222;-79
2023/01/19 03:02:34;;;;;;;17.03;10.47;;;1.20;1.00;;;;;;10311820;28;20195;-79
2023/01/19 03:08:21;;;;;;;21.83;15.00;;;1.10;1.00;;;;;;10315669;28;20264;-79
2023/01/19 03:13:48;;;;;;;30.63;16.30;;;1.00;1.00;;;;;;10299702;28;20507;-79
2023/01/19 03:19:24;;;;;;;20.40;12.83;;;0.80;15.20;;;;;;10300429;28;20201;-79
2023/01/19 03:24:47;;;;;;;16.53;11.07;;;0.80;29.90;;;;;;10296774;28;20217;-79
2023/01/19 03:30:12;;;;;;;21.47;10.60;;;0.80;37.90;;;;;;10297774;28;20243;-78
2023/01/19 03:35:36;;;;;;;20.80;11.30;;;0.80;33.20;;;;;;10314968;28;20225;-78
2023/01/19 03:41:01;;;;;;;20.07;11.73;;;0.70;29.00;;;;;;10303056;28;20499;-79
2023/01/19 03:46:24;;;;;;;19.43;12.17;;;0.60;30.30;;;;;;10322408;28;20201;-79
2023/01/19 03:51:45;;;;;;;24.00;13.23;;;0.60;33.30;;;;;;10323001;28;20193;-79
2023/01/19 03:57:07;;;;;;;24.73;12.97;;;0.50;38.70;;;;;;10307226;28;20230;-78
2023/01/19 04:02:28;;;;;;;18.60;10.80;;;0.50;47.20;;;;;;10322551;28;20193;-79
2023/01/19 04:07:50;;;;;;;19.07;10.10;;;0.40;57.60;;;;;;10308193;28;20204;-79
2023/01/19 04:13:12;;;;;;;15.00;9.97;;;0.40;67.70;;;;;;10305228;28;20223;-79
2023/01/19 04:18:33;;;;;;;17.57;10.97;;;0.30;68.20;;;;;;10321122;28;20248;-79
2023/01/19 04:23:54;;;;;;;17.27;10.77;;;0.30;56.30;;;;;;10319918;28;20212;-79
2023/01/19 04:29:15;;;;;;;16.67;10.27;;;0.30;43.10;;;;;;10321514;28;20236;-79
2023/01/19 04:34:36;;;;;;;19.20;10.67;;;0.20;53.60;;;;;;10304068;28;20458;-79
2023/01/19 04:39:57;;;;;;;22.53;14.13;;;0.30;48.30;;;;;;10319372;28;20207;-79
2023/01/19 04:45:19;;;;;;;46.07;23.43;;;0.20;48.80;;;;;;10281150;28;20260;-80
2023/01/19 04:50:40;;;;;;;59.93;30.73;;;0.20;37.00;;;;;;10279025;28;20226;-78
2023/01/19 04:56:01;;;;;;;46.20;26.20;;;0.10;51.00;;;;;;10292580;28;20228;-79
2023/01/19 05:01:23;;;;;;;31.77;18.80;;;0.10;44.20;;;;;;10302836;28;20212;-77
2023/01/19 05:06:44;;;;;;;22.93;14.27;;;0.10;31.70;;;;;;10320070;28;20197;-79
2023/01/19 05:12:06;;;;;;;22.30;14.17;;;0.20;43.60;;;;;;10312203;28;20284;-77
2023/01/19 05:17:27;;;;;;;23.73;14.57;;;0.20;47.60;;;;;;10319355;28;20249;-79
2023/01/19 05:22:49;;;;;;;22.43;12.70;;;0.30;54.00;;;;;;10319192;28;20253;-78
2023/01/19 05:28:10;;;;;;;21.33;10.87;;;0.40;60.20;;;;;;10317212;28;20491;-78
2023/01/19 05:33:31;;;;;;;20.23;12.57;;;0.40;39.00;;;;;;10317728;28;20236;-79
2023/01/19 05:38:53;;;;;;;18.23;11.63;;;0.40;48.60;;;;;;10312506;28;20212;-79
2023/01/19 05:44:14;;;;;;;19.40;11.23;;;0.40;30.40;;;;;;10301323;28;20499;-78
2023/01/19 05:49:35;;;;;;;30.37;16.17;;;0.40;38.80;;;;;;10317586;28;20224;-79
2023/01/19 05:54:56;;;;;;;26.33;15.23;;;0.50;32.80;;;;;;10316780;28;20541;-79
2023/01/19 06:00:18;;;;;;;26.27;14.60;;;0.60;32.50;;;;;;10318181;28;20220;-78
2023/01/19 06:05:39;;;;;;;21.00;12.80;;;0.70;26.90;;;;;;10301534;28;20204;-79
2023/01/19 06:11:00;;;;;;;20.93;11.60;;;0.80;16.20;;;;;;10332730;28;20213;-79
2023/01/19 06:16:21;;;;;;;46.57;26.53;;;0.80;11.20;;;;;;10317358;28;20221;-79
2023/01/19 06:21:48;;;;;;;43.80;26.33;;;0.70;21.30;;;;;;10315971;28;20252;-79
2023/01/19 06:27:10;;;;;;;65.53;28.17;;;0.80;15.90;;;;;;10317279;28;20201;-78
2023/01/19 06:32:31;;;;;;;42.97;22.33;;;0.60;18.80;;;;;;10302155;28;20277;-79
2023/01/19 06:37:52;;;;;;;36.47;17.37;;;0.60;21.00;;;;;;10314527;28;20289;-79
2023/01/19 06:43:14;;;;;;;24.37;14.80;;;0.60;23.10;;;;;;10315207;28;20212;-79
2023/01/19 06:48:35;;;;;;;23.27;13.23;;;0.50;21.00;;;;;;10313986;28;20281;-79
2023/01/19 06:53:56;;;;;;;22.33;13.00;;;0.60;24.90;;;;;;10314996;28;20222;-79
2023/01/19 06:59:17;;;;;;;24.50;13.60;;;0.60;27.50;;;;;;10298614;28;20197;-78
2023/01/19 07:04:38;;;;;;;28.20;16.00;;;0.60;16.10;;;;;;10284092;28;20224;-79
2023/01/19 07:09:59;;;;;;;26.63;14.97;;;0.70;22.50;;;;;;10328348;28;20193;-79
2023/01/19 07:15:21;;;;;;;32.27;18.90;;;0.70;26.20;;;;;;10315054;28;20380;-80
2023/01/19 07:20:44;;;;;;;33.10;17.03;;;0.80;22.50;;;;;;10313165;28;20576;-79
2023/01/19 07:26:05;;;;;;;66.07;37.73;;;0.80;17.40;;;;;;10313866;28;20211;-78
2023/01/19 07:31:27;;;;;;;50.33;30.17;;;0.90;11.20;;;;;;10314766;28;20249;-78
2023/01/19 07:36:48;;;;;;;23.30;14.90;;;0.90;15.70;;;;;;10310073;28;20226;-79
2023/01/19 07:42:10;;;;;;;17.00;11.27;;;0.90;18.50;;;;;;10313336;28;20242;-78
2023/01/19 07:47:31;;;;;;;17.27;10.40;;;0.90;22.60;;;;;;10314234;28;20194;-79
2023/01/19 07:52:52;;;;;;;23.37;13.77;;;0.90;20.80;;;;;;10313103;28;20235;-79
2023/01/19 07:58:13;;;;;;;21.73;12.37;;;0.90;22.90;;;;;;10314363;28;20217;-79
2023/01/19 08:03:34;;;;;;;15.83;10.43;;;0.80;22.00;;;;;;10295973;28;20202;-78
2023/01/19 08:08:56;;;;;;;15.60;10.33;;;0.80;24.50;;;;;;10313791;28;20234;-79
2023/01/19 08:14:17;;;;;;;20.27;14.30;;;0.70;20.60;;;;;;10312662;28;20245;-77
2023/01/19 08:19:38;;;;;;;21.33;13.03;;;0.80;25.90;;;;;;10313963;28;20196;-78
2023/01/19 08:25:01;;;;;;;25.50;13.50;;;1.10;15.80;;;;;;10298841;28;20255;-79
2023/01/19 08:30:25;;;;;;;23.13;13.93;;;1.30;1.00;;;;;;10307918;28;20297;-80
2023/01/19 08:35:48;;;;;;;23.40;13.83;;;1.70;1.00;;;;;;10280991;28;20293;-79
2023/01/19 08:41:11;;;;;;;22.00;13.30;;;2.30;1.00;;;;;;10281631;28;20447;-80
2023/01/19 08:46:32;;;;;;;18.40;11.37;;;3.40;1.00;;;;;;10315490;28;20398;-79
2023/01/19 08:51:53;;;;;;;11.83;8.10;;;4.40;1.00;;;;;;10295681;28;20212;-79
2023/01/19 08:57:15;;;;;;;18.30;11.10;;;5.00;99.90;;;;;;10330822;28;20235;-80
2023/01/19 09:02:36;;;;;;;15.00;9.13;;;5.70;1.00;;;;;;10345897;28;20251;-80
2023/01/19 09:07:57;;;;;;;15.43;9.70;;;6.20;1.00;;;;;;10300196;28;20211;-80
2023/01/19 09:13:19;;;;;;;14.57;9.20;;;5.40;1.00;;;;;;10304626;28;20195;-80
2023/01/19 09:18:40;;;;;;;12.40;8.20;;;4.60;1.00;;;;;;10296992;28;20270;-77
2023/01/19 09:24:01;;;;;;;14.83;8.73;;;3.80;1.00;;;;;;10280786;28;20278;-78
2023/01/19 09:29:23;;;;;;;14.17;9.33;;;3.50;1.00;;;;;;10320084;28;20573;-78
2023/01/19 09:34:44;;;;;;;15.97;8.63;;;3.20;1.00;;;;;;10311423;28;20265;-77
2023/01/19 09:40:06;;;;;;;19.97;11.00;;;3.00;1.00;;;;;;10297009;28;20199;-77
2023/01/19 09:46:05;;;;;;;18.37;10.50;;;2.80;99.90;;;;;;10310931;28;20250;-81
2023/01/19 09:51:32;;;;;;;15.17;9.77;;;2.70;99.90;;;;;;10136078;29;20209;-79
2023/01/19 09:56:53;;;;;;;15.13;9.73;;;2.60;99.90;;;;;;10151713;29;20309;-78
2023/01/19 10:02:45;;;;;;;14.13;9.03;;;2.60;99.90;;;;;;10150488;29;20222;-78
2023/01/19 10:08:30;;;;;;;14.90;9.10;;;2.50;99.90;;;;;;10150811;29;20245;-79
2023/01/19 10:13:53;;;;;;;13.73;8.90;;;2.40;99.90;;;;;;10147655;29;20284;-81
2023/01/19 10:19:35;;;;;;;17.30;9.43;;;2.40;1.00;;;;;;10185333;28;20236;-79
2023/01/19 10:25:00;;;;;;;20.30;8.53;;;2.30;1.00;;;;;;10310661;28;20205;-78
2023/01/19 10:30:25;;;;;;;14.50;7.53;;;2.50;99.90;;;;;;10317888;28;20248;-78
2023/01/19 10:35:49;;;;;;;13.40;7.70;;;2.70;99.90;;;;;;10311231;28;20229;-84
2023/01/19 10:41:17;;;;;;;11.07;6.00;;;2.90;99.90;;;;;;10293909;28;20206;-81
2023/01/19 10:46:44;;;;;;;12.00;6.87;;;2.90;1.00;;;;;;10295835;28;20405;-78
2023/01/19 10:52:07;;;;;;;14.40;7.80;;;2.80;1.00;;;;;;10308046;28;20489;-80
2023/01/19 10:57:33;;;;;;;10.37;6.03;;;2.80;92.00;;;;;;10296630;28;20269;-79
2023/01/19 11:02:54;;;;;;;7.43;3.97;;;3.00;1.00;;;;;;10293910;28;20388;-80
2023/01/19 11:08:29;;;;;;;8.97;5.67;;;3.10;49.50;;;;;;10310075;28;20186;-74
2023/01/19 11:14:23;;;;;;;10.90;5.17;;;3.10;1.00;;;;;;10295838;28;20245;-88
2023/01/19 11:19:56;;;;;;;5.43;3.30;;;3.30;1.00;;;;;;10147646;29;20225;-87
2023/01/19 11:25:26;;;;;;;9.73;6.13;;;3.90;1.00;;;;;;10132792;29;20203;-77
2023/01/19 11:31:21;;;;;;;8.47;4.47;;;6.10;1.00;;;;;;10146273;29;20666;-79
2023/01/19 11:36:58;;;;;;;13.23;5.60;;;7.70;99.90;;;;;;10135073;29;20251;-80
2023/01/19 11:58:02;;;;;;;10.03;6.17;;;8.90;1.00;;;;;;10587847;27;20580;-79
2023/01/19 12:03:35;;;;;;;10.97;5.00;;;8.30;1.00;;;;;;10577587;28;20191;-74
2023/01/19 12:08:59;;;;;;;7.17;4.53;;;7.20;1.00;;;;;;10591686;28;20773;-75
2023/01/19 12:14:30;;;;;;;14.80;8.20;;;6.30;99.90;;;;;;10573702;28;20231;-74
2023/01/19 12:20:12;;;;;;;8.77;4.97;;;5.40;1.00;;;;;;10589025;28;20251;-73
2023/01/19 12:25:54;;;;;;;14.60;6.73;;;5.30;99.90;;;;;;10588532;28;20203;-76
2023/01/19 12:31:17;;;;;;;14.83;9.20;;;5.50;99.90;;;;;;10602495;28;20249;-76
2023/01/19 12:36:39;;;;;;;16.50;9.13;;;5.40;1.00;;;;;;10590146;28;20303;-74
2023/01/19 12:42:11;;;;;;;23.03;12.50;;;5.40;99.90;;;;;;10590229;28;20364;-76
2023/01/19 12:47:33;;;;;;;22.00;13.57;;;5.40;99.90;;;;;;10588453;28;20200;-80
2023/01/19 12:53:00;;;;;;;14.23;8.53;;;5.10;1.00;;;;;;10573121;28;20500;-78
2023/01/19 12:58:23;;;;;;;15.63;9.53;;;4.90;1.00;;;;;;10564730;28;21190;-76
2023/01/19 13:04:02;;;;;;;30.07;15.27;;;4.50;1.00;;;;;;10574989;28;20212;-78
2023/01/19 13:09:37;;;;;;;27.73;14.00;;;4.30;1.00;;;;;;10531026;28;20209;-76
2023/01/19 13:15:27;;;;;;;22.73;11.30;;;4.20;1.00;;;;;;10548799;28;20227;-77
2023/01/19 13:21:02;;;;;;;11.33;5.87;;;4.40;1.00;;;;;;10534602;28;20462;-78
2023/01/19 13:26:27;;;;;;;12.93;7.80;;;4.30;99.90;;;;;;10542670;28;20246;-78
2023/01/19 13:31:48;;;;;;;15.70;9.50;;;4.20;99.90;;;;;;10557926;28;20210;-79
2023/01/19 13:37:22;;;;;;;18.93;9.50;;;3.90;1.00;;;;;;10517128;28;20236;-77
2023/01/19 13:42:44;;;;;;;29.10;14.90;;;3.70;1.00;;;;;;10519991;28;20216;-78
2023/01/19 13:48:07;;;;;;;26.50;13.47;;;3.70;1.00;;;;;;10534317;28;20232;-76
2023/01/19 13:53:29;;;;;;;42.50;15.87;;;3.60;1.00;;;;;;10549704;28;20285;-76
2023/01/19 13:59:03;;;;;;;35.10;14.60;;;3.40;99.90;;;;;;10557094;28;20399;-74
2023/01/19 14:04:28;;;;;;;27.50;12.87;;;3.20;99.90;;;;;;10541040;28;20207;-76
2023/01/19 14:10:08;;;;;;;48.83;23.80;;;3.20;99.90;;;;;;10544948;28;20206;-77
2023/01/19 14:15:32;;;;;;;34.93;16.93;;;3.10;99.90;;;;;;10572264;28;20227;-75
2023/01/19 14:21:02;;;;;;;53.00;25.77;;;2.90;1.00;;;;;;10553513;28;20218;-76
2023/01/19 14:26:42;;;;;;;68.90;33.57;;;2.80;1.00;;;;;;10551964;28;20205;-75
2023/01/19 14:32:03;;;;;;;76.93;34.83;;;2.60;1.00;;;;;;10552008;28;21548;-73
2023/01/19 14:37:30;;;;;;;84.53;36.00;;;2.50;1.00;;;;;;10550253;28;20420;-73
2023/01/19 14:42:54;;;;;;;140.80;56.60;;;2.50;1.00;;;;;;10554439;28;20202;-76
2023/01/19 14:48:19;;;;;;;118.03;43.67;;;2.40;1.00;;;;;;10555413;28;20377;-79
2023/01/19 14:53:48;;;;;;;105.20;38.93;;;2.40;1.00;;;;;;10550263;28;20238;-77
2023/01/19 14:59:10;;;;;;;149.87;50.37;;;2.30;1.00;;;;;;10547439;28;20199;-77
2023/01/19 15:04:31;;;;;;;157.40;49.60;;;2.20;1.00;;;;;;10571529;27;20509;-77
2023/01/19 15:09:53;;;;;;;127.33;40.67;;;2.10;1.00;;;;;;10556009;28;20270;-79
2023/01/19 15:15:30;;;;;;;76.93;24.40;;;2.00;1.00;;;;;;10552681;28;20283;-75
2023/01/19 15:20:54;;;;;;;80.30;25.63;;;1.90;1.00;;;;;;10551878;28;20256;-74
2023/01/19 15:26:17;;;;;;;69.37;24.87;;;1.80;1.00;;;;;;10551604;28;20313;-74
2023/01/19 15:31:38;;;;;;;65.97;28.27;;;1.80;1.00;;;;;;10546107;28;20315;-76
2023/01/19 15:36:59;;;;;;;72.63;34.73;;;1.60;1.00;;;;;;10549707;28;20230;-77
2023/01/19 15:42:20;;;;;;;131.13;64.33;;;1.60;1.00;;;;;;10554394;28;20197;-74
2023/01/19 15:47:41;;;;;;;122.00;61.07;;;1.50;1.00;;;;;;10542543;28;20217;-76
2023/01/19 15:53:03;;;;;;;117.97;53.13;;;1.40;1.00;;;;;;10534836;28;20366;-75
2023/01/19 15:58:25;;;;;;;135.97;63.57;;;1.40;1.00;;;;;;10542599;28;20494;-77
2023/01/19 16:03:46;;;;;;;151.87;73.43;;;1.40;1.00;;;;;;10555988;28;20213;-77
2023/01/19 16:09:11;;;;;;;137.97;66.67;;;1.50;1.00;;;;;;10559475;28;20196;-77
2023/01/19 16:14:32;;;;;;;107.00;53.60;;;1.50;1.00;;;;;;10551672;28;20583;-77
2023/01/19 16:19:53;;;;;;;111.53;54.00;;;1.60;1.00;;;;;;10507448;28;20849;-77
2023/01/19 16:25:14;;;;;;;92.30;44.07;;;1.60;1.00;;;;;;10557489;28;20190;-77
2023/01/19 16:30:35;;;;;;;198.40;72.17;;;1.60;1.00;;;;;;10540145;28;20214;-78
2023/01/19 16:35:57;;;;;;;195.70;84.27;;;1.70;1.00;;;;;;10557165;28;20225;-78
2023/01/19 16:41:18;;;;;;;125.83;55.43;;;1.70;1.00;;;;;;10559797;28;20209;-78
2023/01/19 16:46:42;;;;;;;92.87;45.90;;;1.60;1.00;;;;;;10565056;28;20206;-77
2023/01/19 16:52:03;;;;;;;126.10;60.07;;;1.60;2.10;;;;;;10568069;28;20228;-78
2023/01/19 16:57:24;;;;;;;121.63;50.13;;;1.70;15.90;;;;;;10566722;28;20234;-77
2023/01/19 17:02:45;;;;;;;113.10;51.33;;;1.80;1.00;;;;;;10529362;28;20194;-76
2023/01/19 17:08:06;;;;;;;74.83;38.33;;;1.90;1.00;;;;;;10525669;28;20267;-76
2023/01/19 17:13:30;;;;;;;61.23;30.93;;;1.80;1.00;;;;;;10525017;28;20187;-78
2023/01/19 17:18:51;;;;;;;71.87;35.37;;;1.80;1.00;;;;;;10555442;28;20210;-77
2023/01/19 17:24:12;;;;;;;60.13;30.10;;;1.80;1.00;;;;;;10566673;28;20275;-77
2023/01/19 17:29:33;;;;;;;70.73;42.30;;;1.70;1.00;;;;;;10551567;28;20186;-77
2023/01/19 17:34:54;;;;;;;62.87;31.50;;;1.70;1.00;;;;;;10562683;28;20241;-77
2023/01/19 17:40:15;;;;;;;54.50;28.77;;;1.70;1.00;;;;;;10564665;28;20217;-76
2023/01/19 17:45:36;;;;;;;53.27;28.57;;;1.60;9.80;;;;;;10565328;28;20202;-76
2023/01/19 17:51:02;;;;;;;65.87;31.43;;;1.60;10.20;;;;;;10565632;28;20239;-77
2023/01/19 17:56:28;;;;;;;61.67;33.53;;;1.60;1.00;;;;;;10563831;28;20338;-77
2023/01/19 18:01:49;;;;;;;81.73;44.77;;;1.70;1.00;;;;;;10563787;28;20248;-77
2023/01/19 18:07:10;;;;;;;73.47;42.33;;;1.70;1.20;;;;;;10550348;28;20201;-77
2023/01/19 18:12:32;;;;;;;64.90;34.53;;;1.70;10.20;;;;;;10564669;28;20186;-75
2023/01/19 18:17:52;;;;;;;62.67;31.30;;;1.70;16.10;;;;;;10536350;28;20313;-77
2023/01/19 18:23:13;;;;;;;55.13;29.73;;;1.70;4.40;;;;;;10557916;28;20186;-78
2023/01/19 18:28:35;;;;;;;50.77;29.37;;;1.70;20.70;;;;;;10564085;28;20193;-76
2023/01/19 18:33:56;;;;;;;54.53;28.47;;;1.80;15.50;;;;;;10541019;28;20210;-77
2023/01/19 18:39:17;;;;;;;62.70;31.53;;;1.80;12.90;;;;;;10521067;28;20187;-76
2023/01/19 18:44:38;;;;;;;68.53;32.47;;;1.90;3.40;;;;;;10528852;28;20251;-76
2023/01/19 18:49:59;;;;;;;75.37;40.00;;;2.00;3.20;;;;;;10535571;28;20274;-77
2023/01/19 18:55:21;;;;;;;78.77;43.67;;;1.90;3.80;;;;;;10520809;28;20237;-76
2023/01/19 19:00:42;;;;;;;84.67;40.77;;;1.90;10.00;;;;;;10550671;28;20476;-76
2023/01/19 19:06:03;;;;;;;89.83;47.53;;;2.00;1.00;;;;;;10520096;28;20191;-77
2023/01/19 19:11:25;;;;;;;84.93;44.10;;;1.90;1.00;;;;;;10520559;28;20207;-77
2023/01/19 19:16:46;;;;;;;60.63;30.53;;;1.90;2.30;;;;;;10539916;28;20265;-77
2023/01/19 19:22:07;;;;;;;39.50;21.43;;;1.90;1.00;;;;;;10560713;28;20194;-77
2023/01/19 19:27:28;;;;;;;49.13;27.37;;;1.80;1.00;;;;;;10561109;28;20436;-77
2023/01/19 19:32:54;;;;;;;48.67;27.13;;;1.80;1.00;;;;;;10535937;28;20197;-78
2023/01/19 19:38:16;;;;;;;43.27;23.57;;;1.70;1.00;;;;;;10504574;28;20480;-78
2023/01/19 19:43:37;;;;;;;46.17;25.40;;;1.70;1.00;;;;;;10531975;28;20197;-77
2023/01/19 19:48:58;;;;;;;42.63;23.97;;;1.70;1.00;;;;;;10561394;28;20197;-80
2023/01/19 19:54:19;;;;;;;35.10;21.17;;;1.60;1.00;;;;;;10560132;28;20237;-77
2023/01/19 19:59:41;;;;;;;59.07;31.90;;;1.60;1.00;;;;;;10552770;28;20198;-76
2023/01/19 20:05:04;;;;;;;43.60;24.80;;;1.60;1.00;;;;;;10558409;28;20206;-77
2023/01/19 20:10:25;;;;;;;46.07;24.17;;;1.40;1.00;;;;;;10561349;28;20230;-79
2023/01/19 20:15:46;;;;;;;33.37;18.57;;;1.40;1.00;;;;;;10561694;28;20479;-77
2023/01/19 20:21:27;;;;;;;31.40;18.93;;;1.40;1.00;;;;;;10559614;28;20385;-77
2023/01/19 20:26:51;;;;;;;43.17;24.00;;;1.40;1.00;;;;;;10569088;28;20545;-77
2023/01/19 20:32:12;;;;;;;52.90;28.97;;;1.30;1.00;;;;;;10568392;28;20231;-78
2023/01/19 20:37:33;;;;;;;41.00;22.47;;;1.20;1.00;;;;;;10567305;28;20220;-76
2023/01/19 20:42:55;;;;;;;40.57;19.57;;;1.10;1.00;;;;;;10568653;28;20223;-77
2023/01/19 20:48:16;;;;;;;41.77;23.33;;;1.10;1.00;;;;;;10566713;28;20279;-76
2023/01/19 20:53:38;;;;;;;38.30;20.20;;;1.00;1.00;;;;;;10567822;28;20301;-77
2023/01/19 20:59:00;;;;;;;38.50;19.43;;;0.90;1.00;;;;;;10567985;28;20217;-76
2023/01/19 21:04:22;;;;;;;42.10;21.00;;;1.00;1.00;;;;;;10553393;28;20252;-77
2023/01/19 21:09:43;;;;;;;41.73;19.97;;;1.00;1.00;;;;;;10560141;28;20281;-77
2023/01/19 21:15:04;;;;;;;37.77;18.67;;;1.00;1.00;;;;;;10552276;28;20409;-77
2023/01/19 21:20:28;;;;;;;44.13;21.10;;;1.10;1.00;;;;;;10563990;28;20251;-77
2023/01/19 21:25:54;;;;;;;35.17;18.70;;;1.10;1.00;;;;;;10537344;28;20268;-77
2023/01/19 21:31:16;;;;;;;29.63;16.80;;;1.20;1.00;;;;;;10534439;28;20218;-77
2023/01/19 21:36:37;;;;;;;24.43;15.40;;;1.10;1.00;;;;;;10563818;28;20229;-76
2023/01/19 21:41:58;;;;;;;37.43;18.23;;;1.10;1.00;;;;;;10565563;28;20196;-76
2023/01/19 21:47:19;;;;;;;27.47;16.07;;;1.20;1.00;;;;;;10564802;28;20198;-75
2023/01/19 21:52:40;;;;;;;34.67;17.87;;;1.20;1.00;;;;;;10564234;28;20204;-75
2023/01/19 21:58:02;;;;;;;33.20;17.73;;;1.20;1.00;;;;;;10564794;28;20543;-75
2023/01/19 22:03:24;;;;;;;24.07;16.27;;;1.20;1.00;;;;;;10564119;28;20190;-77
2023/01/19 22:08:46;;;;;;;28.93;17.07;;;1.10;1.00;;;;;;10563778;28;20504;-77
2023/01/19 22:14:07;;;;;;;28.13;15.57;;;1.00;1.00;;;;;;10565130;28;20215;-76
2023/01/19 22:19:28;;;;;;;32.43;17.93;;;1.00;1.00;;;;;;10564067;28;20366;-76
2023/01/19 22:24:49;;;;;;;31.43;17.90;;;0.90;1.00;;;;;;10564817;28;20190;-76
2023/01/19 22:30:10;;;;;;;37.43;20.47;;;0.70;1.00;;;;;;10563248;28;20243;-77
2023/01/19 22:35:31;;;;;;;28.10;16.20;;;0.70;1.00;;;;;;10562132;28;20228;-77
2023/01/19 22:40:53;;;;;;;25.27;15.33;;;0.60;1.00;;;;;;10563349;28;20190;-79
2023/01/19 22:46:18;;;;;;;34.13;18.73;;;0.60;1.00;;;;;;10563768;28;20268;-78
2023/01/19 22:51:40;;;;;;;35.90;19.33;;;0.50;1.00;;;;;;10561600;28;20267;-79
2023/01/19 22:57:01;;;;;;;30.73;18.47;;;0.50;1.00;;;;;;10562011;28;20237;-78
2023/01/19 23:02:22;;;;;;;29.77;17.17;;;0.50;1.00;;;;;;10562692;28;20444;-77
2023/01/19 23:07:43;;;;;;;25.60;15.73;;;0.50;1.00;;;;;;10560245;28;20511;-78
2023/01/19 23:13:04;;;;;;;28.70;15.33;;;0.30;1.00;;;;;;10562567;28;20190;-79
2023/01/19 23:18:26;;;;;;;27.87;16.17;;;0.30;1.00;;;;;;10561365;28;20265;-79
2023/01/19 23:23:47;;;;;;;34.33;18.60;;;0.30;1.00;;;;;;10526653;28;20243;-78
2023/01/19 23:29:14;;;;;;;28.20;16.03;;;0.30;1.00;;;;;;10533982;28;20243;-78
2023/01/19 23:34:34;;;;;;;35.53;18.17;;;0.10;1.00;;;;;;10559943;28;20202;-78
2023/01/19 23:39:56;;;;;;;31.67;17.47;;;0.10;1.00;;;;;;10562160;28;20220;-79
2023/01/19 23:45:17;;;;;;;34.27;18.77;;;0.10;1.00;;;;;;10559531;28;20224;-79
2023/01/19 23:50:39;;;;;;;29.40;17.10;;;0.10;1.00;;;;;;10560523;28;20495;-79
2023/01/19 23:56:14;;;;;;;31.07;18.73;;;0.10;1.00;;;;;;10531020;28;20557;-79
